Time;durP1;ratioP1;P1;durP2;ratioP2;P2;SDS_P1;SDS_P2;PMS_P1;PMS_P2;Temp;Humidity;BMP_temperature;BMP_pressure;BME280_temperature;BME280_humidity;BME280_pressure;Samples;Min_cycle;Max_cycle;Signal;HPM_P1;HPM_P2
2023/10/27 00:00:58;;;;;;;21.35;8.98;;;;;;;13.60;74.31;98128.09;10328044;28;20042;-67
2023/10/27 00:06:00;;;;;;;18.88;8.20;;;;;;;13.67;74.19;98131.44;10314591;28;20498;-67
2023/10/27 00:11:05;;;;;;;19.92;7.70;;;;;;;13.65;74.20;98120.06;10313973;28;20039;-67
2023/10/27 00:16:08;;;;;;;23.73;8.80;;;;;;;13.61;74.43;98132.44;10306403;28;20046;-67
2023/10/27 00:21:10;;;;;;;18.85;7.82;;;;;;;13.60;74.47;98134.31;10312956;28;20046;-67
2023/10/27 00:26:11;;;;;;;22.15;8.07;;;;;;;13.56;74.64;98126.97;10311776;28;20498;-67
2023/10/27 00:31:12;;;;;;;16.48;6.93;;;;;;;13.60;74.54;98125.41;10312421;28;20371;-67
2023/10/27 00:36:14;;;;;;;17.25;6.25;;;;;;;13.62;74.50;98125.97;10313225;28;20054;-67
2023/10/27 00:41:16;;;;;;;22.80;6.93;;;;;;;13.69;74.19;98113.09;10314167;28;20054;-67
2023/10/27 00:46:17;;;;;;;19.15;6.38;;;;;;;13.73;73.89;98118.81;10311925;28;20437;-66
2023/10/27 00:51:19;;;;;;;14.75;6.90;;;;;;;13.62;74.09;98131.38;10313054;28;20050;-67
2023/10/27 00:56:21;;;;;;;15.70;6.78;;;;;;;13.57;73.94;98126.72;10312476;28;20042;-67
2023/10/27 01:01:23;;;;;;;16.77;7.13;;;;;;;13.40;74.19;98125.94;10314746;28;20054;-67
2023/10/27 01:06:25;;;;;;;15.75;7.97;;;;;;;13.39;74.21;98127.00;10311924;28;20080;-67
2023/10/27 01:11:26;;;;;;;27.02;7.70;;;;;;;13.37;74.18;98118.34;10313984;28;20050;-66
2023/10/27 01:16:28;;;;;;;18.35;7.15;;;;;;;13.37;73.96;98105.69;10313542;28;20058;-67
2023/10/27 01:21:29;;;;;;;19.30;8.15;;;;;;;13.39;73.85;98105.41;10313166;28;20042;-67
2023/10/27 01:26:31;;;;;;;27.40;7.00;;;;;;;13.29;73.90;98098.00;10310813;28;20046;-68
2023/10/27 01:31:32;;;;;;;23.60;6.90;;;;;;;13.28;73.96;98094.47;10312331;28;20046;-67
2023/10/27 01:36:33;;;;;;;13.60;5.93;;;;;;;13.24;73.83;98092.53;10286044;28;20065;-67
2023/10/27 01:41:35;;;;;;;19.65;6.18;;;;;;;13.19;73.76;98089.75;10323772;28;20057;-67
2023/10/27 01:46:36;;;;;;;26.77;6.50;;;;;;;13.13;73.87;98072.69;10291769;28;20062;-67
2023/10/27 01:51:38;;;;;;;19.25;6.15;;;;;;;13.11;73.89;98072.09;10320469;28;20054;-67
2023/10/27 01:56:39;;;;;;;15.52;5.95;;;;;;;13.10;73.86;98060.50;10319957;28;20042;-67
2023/10/27 02:01:41;;;;;;;9.40;4.70;;;;;;;13.11;73.77;98055.91;10318936;28;20069;-67
2023/10/27 02:06:42;;;;;;;12.63;5.68;;;;;;;13.09;73.95;98063.44;10318176;28;20065;-67
2023/10/27 02:11:44;;;;;;;22.00;5.95;;;;;;;13.08;73.99;98062.63;10321727;28;20386;-68
2023/10/27 02:16:45;;;;;;;21.08;6.10;;;;;;;13.07;73.91;98062.88;10319141;28;20042;-67
2023/10/27 02:21:46;;;;;;;16.60;6.72;;;;;;;13.08;73.63;98053.72;10331442;28;20043;-66
2023/10/27 02:26:48;;;;;;;18.00;7.15;;;;;;;13.07;73.26;98055.63;10317277;28;20066;-66
2023/10/27 02:31:49;;;;;;;20.25;7.50;;;;;;;13.07;73.43;98054.78;10319740;28;20054;-66
2023/10/27 02:36:51;;;;;;;23.77;7.70;;;;;;;13.04;73.35;98048.00;10318258;28;20149;-67
2023/10/27 02:41:52;;;;;;;15.57;6.47;;;;;;;13.01;73.38;98037.75;10319716;28;20055;-67
2023/10/27 02:46:54;;;;;;;16.63;6.05;;;;;;;13.00;73.13;98028.00;10316419;28;20046;-66
2023/10/27 02:51:55;;;;;;;18.00;6.93;;;;;;;12.95;73.44;98024.41;10317097;28;20577;-67
2023/10/27 02:56:57;;;;;;;19.13;7.05;;;;;;;12.92;73.24;98025.75;10315009;28;20589;-67
2023/10/27 03:01:59;;;;;;;18.17;6.82;;;;;;;12.85;73.15;98012.41;10316717;28;20072;-66
2023/10/27 03:07:00;;;;;;;19.67;8.07;;;;;;;12.82;73.44;98012.94;10329319;28;20045;-66
2023/10/27 03:12:01;;;;;;;16.98;7.65;;;;;;;12.77;73.15;98018.25;10316303;28;20038;-67
2023/10/27 03:17:03;;;;;;;20.38;8.68;;;;;;;12.74;73.18;98016.06;10315463;28;20053;-67
2023/10/27 03:22:05;;;;;;;22.73;7.47;;;;;;;12.75;73.33;98017.66;10315710;28;20038;-67
2023/10/27 03:27:06;;;;;;;19.98;7.10;;;;;;;12.70;73.32;98023.00;10314341;28;20115;-67
2023/10/27 03:32:08;;;;;;;21.58;7.78;;;;;;;12.68;73.31;98027.81;10315379;28;20486;-67
2023/10/27 03:37:09;;;;;;;28.52;11.35;;;;;;;12.71;73.11;98021.94;10315136;28;20054;-67
2023/10/27 03:42:11;;;;;;;23.20;9.07;;;;;;;12.72;73.19;98031.66;10316779;28;20058;-67
2023/10/27 03:47:12;;;;;;;16.52;5.57;;;;;;;12.66;73.46;98032.66;10314198;28;20052;-67
2023/10/27 03:52:14;;;;;;;13.80;5.07;;;;;;;12.69;73.80;98035.66;10313802;28;20054;-67
2023/10/27 03:57:15;;;;;;;12.38;4.10;;;;;;;12.78;73.87;98040.66;10314450;28;20134;-66
2023/10/27 04:02:17;;;;;;;20.67;3.72;;;;;;;12.77;73.94;98029.03;10313123;28;20069;-66
2023/10/27 04:07:18;;;;;;;12.13;3.13;;;;;;;12.76;74.45;98038.19;10314104;28;20415;-67
2023/10/27 04:12:19;;;;;;;21.17;5.15;;;;;;;12.86;74.41;98034.81;10314792;28;20046;-66
2023/10/27 04:17:21;;;;;;;13.25;2.88;;;;;;;12.98;74.14;98032.84;10312576;28;20043;-67
2023/10/27 04:22:22;;;;;;;13.25;1.98;;;;;;;13.08;73.78;98021.38;10312021;28;20046;-67
2023/10/27 04:27:25;;;;;;;20.88;3.03;;;;;;;13.09;74.41;98023.81;10312503;28;20123;-66
2023/10/27 04:32:26;;;;;;;9.15;2.78;;;;;;;13.13;74.58;98026.00;10311458;28;20046;-67
2023/10/27 04:37:30;;;;;;;14.45;2.15;;;;;;;13.22;74.38;98024.50;10326443;28;20045;-66
2023/10/27 04:42:32;;;;;;;19.23;2.78;;;;;;;13.32;74.11;98013.06;10311328;28;20053;-67
2023/10/27 04:47:33;;;;;;;22.42;3.53;;;;;;;13.37;74.17;98013.09;10312703;28;20425;-67
2023/10/27 04:52:35;;;;;;;13.65;2.15;;;;;;;13.34;74.04;98011.72;10313419;28;20133;-66
2023/10/27 04:57:36;;;;;;;16.40;2.58;;;;;;;13.38;74.07;98004.75;10327362;28;20307;-68
2023/10/27 05:02:38;;;;;;;18.35;1.98;;;;;;;13.36;74.16;98000.69;10313123;28;20046;-69
2023/10/27 05:07:40;;;;;;;10.45;2.40;;;;;;;13.39;74.06;97995.63;10315439;28;20489;-69
2023/10/27 05:12:41;;;;;;;13.45;2.28;;;;;;;13.41;74.01;97998.06;10320584;28;20065;-70
2023/10/27 05:17:43;;;;;;;17.33;2.88;;;;;;;13.34;73.97;98000.94;10321247;28;20510;-73
2023/10/27 05:22:44;;;;;;;12.25;3.22;;;;;;;13.08;75.07;97997.09;10318884;28;20213;-71
2023/10/27 05:27:46;;;;;;;11.93;3.50;;;;;;;12.73;76.07;97998.22;10319009;28;20354;-69
2023/10/27 05:32:47;;;;;;;18.42;4.70;;;;;;;12.55;76.81;97993.94;10321022;28;20518;-69
2023/10/27 05:37:49;;;;;;;15.05;5.03;;;;;;;12.53;76.55;97995.25;10316586;28;20129;-71
2023/10/27 05:42:50;;;;;;;15.60;5.28;;;;;;;12.64;76.20;97997.03;10322290;28;20046;-70
2023/10/27 05:47:51;;;;;;;19.48;6.25;;;;;;;12.72;76.13;97996.63;10321551;28;20046;-73
2023/10/27 05:52:53;;;;;;;20.05;5.80;;;;;;;12.73;76.16;97994.72;10319154;28;20493;-71
2023/10/27 05:57:54;;;;;;;14.38;4.10;;;;;;;12.76;76.19;98000.44;10312141;28;20043;-72
2023/10/27 06:02:56;;;;;;;20.70;4.32;;;;;;;12.82;76.23;98002.16;10318813;28;20043;-74
2023/10/27 06:07:58;;;;;;;15.48;4.72;;;;;;;12.93;76.29;98003.09;10316292;28;20045;-74
2023/10/27 06:12:59;;;;;;;16.05;3.35;;;;;;;12.93;76.41;98007.66;10325115;28;20046;-73
2023/10/27 06:18:01;;;;;;;8.85;3.05;;;;;;;12.87;76.84;98014.88;10316362;28;20097;-72
2023/10/27 06:23:02;;;;;;;15.23;5.03;;;;;;;12.96;76.75;98018.78;10307181;28;20050;-71
2023/10/27 06:28:04;;;;;;;13.43;4.40;;;;;;;12.83;77.12;98016.44;10328131;28;20073;-70
2023/10/27 06:33:06;;;;;;;15.00;4.07;;;;;;;12.89;76.89;98023.53;10314608;28;20042;-71
2023/10/27 06:38:08;;;;;;;12.15;4.43;;;;;;;12.91;77.24;98013.31;10315223;28;20157;-70
2023/10/27 06:43:09;;;;;;;15.18;4.90;;;;;;;12.95;77.54;98016.31;10304516;28;20058;-71
2023/10/27 06:48:11;;;;;;;13.77;4.85;;;;;;;12.93;77.48;98013.88;10296490;28;20047;-71
2023/10/27 06:53:12;;;;;;;15.82;4.85;;;;;;;13.09;77.64;98014.88;10313200;28;20058;-71
2023/10/27 06:58:14;;;;;;;17.27;6.18;;;;;;;13.10;77.50;98009.25;10313185;28;20090;-70
2023/10/27 07:03:15;;;;;;;14.98;4.65;;;;;;;13.14;77.74;98004.19;10308665;28;20046;-69
2023/10/27 07:08:32;;;;;;;15.70;5.13;;;;;;;13.17;77.80;98003.69;10328067;28;20058;-69
2023/10/27 07:13:34;;;;;;;11.95;4.43;;;;;;;13.14;78.07;98012.28;10314209;28;20057;-70
2023/10/27 07:18:35;;;;;;;16.00;5.68;;;;;;;13.23;78.12;98010.78;10311486;28;20070;-70
2023/10/27 07:23:37;;;;;;;15.32;4.97;;;;;;;13.32;78.03;98008.47;10310088;28;20046;-69
2023/10/27 07:28:39;;;;;;;13.00;4.60;;;;;;;13.38;78.29;98012.84;10306856;28;20060;-70
2023/10/27 07:33:40;;;;;;;14.15;5.00;;;;;;;13.31;78.70;98017.66;10326435;28;20057;-71
2023/10/27 07:38:42;;;;;;;8.20;4.07;;;;;;;13.37;78.50;98016.63;10312250;28;20544;-70
2023/10/27 07:43:44;;;;;;;13.68;5.30;;;;;;;13.34;78.63;98016.31;10309122;28;20046;-70
2023/10/27 07:48:45;;;;;;;8.80;4.22;;;;;;;13.29;79.01;98025.16;10314607;28;20042;-70
2023/10/27 07:53:46;;;;;;;13.90;4.28;;;;;;;13.29;78.98;98015.19;10315376;28;20104;-67
2023/10/27 07:58:48;;;;;;;9.40;3.58;;;;;;;13.28;79.19;98010.00;10312193;28;20038;-68
2023/10/27 08:03:50;;;;;;;12.30;3.40;;;;;;;13.27;79.06;98011.91;10308118;28;20054;-69
2023/10/27 08:08:52;;;;;;;9.38;3.13;;;;;;;13.14;79.38;98027.66;10329590;28;20039;-69
2023/10/27 08:13:53;;;;;;;6.68;3.30;;;;;;;13.05;79.76;98030.78;10313661;28;20042;-70
2023/10/27 08:18:54;;;;;;;6.65;3.58;;;;;;;13.17;79.48;98032.53;10313457;28;20105;-70
2023/10/27 08:23:56;;;;;;;11.73;4.03;;;;;;;13.19;79.31;98036.63;10319281;28;20053;-70
2023/10/27 08:28:58;;;;;;;9.93;4.90;;;;;;;13.14;79.32;98044.63;10341815;28;20038;-70
2023/10/27 08:34:00;;;;;;;9.77;4.60;;;;;;;13.22;79.52;98048.78;10322641;28;20054;-69
2023/10/27 08:39:01;;;;;;;11.32;4.95;;;;;;;13.16;79.93;98057.88;10329393;28;20062;-69
2023/10/27 08:44:03;;;;;;;11.68;3.72;;;;;;;12.97;80.41;98054.66;10327051;28;20053;-70
2023/10/27 08:49:22;;;;;;;10.55;4.18;;;;;;;13.08;80.33;98068.03;10318525;28;20129;-69
2023/10/27 08:54:24;;;;;;;8.50;3.33;;;;;;;13.16;80.10;98076.75;10333415;28;20061;-69
2023/10/27 08:59:25;;;;;;;7.15;2.88;;;;;;;12.94;80.48;98082.94;10330133;28;20056;-69
2023/10/27 09:04:27;;;;;;;8.40;2.30;;;;;;;12.72;81.06;98084.72;10327104;28;20513;-69
2023/10/27 09:09:28;;;;;;;7.78;3.00;;;;;;;12.67;81.32;98093.56;10319132;28;20069;-67
2023/10/27 09:14:31;;;;;;;7.95;2.97;;;;;;;12.78;80.76;98099.94;10317551;28;20065;-67
2023/10/27 09:19:33;;;;;;;5.68;2.38;;;;;;;12.84;80.85;98110.56;10320148;28;20054;-66
2023/10/27 09:24:35;;;;;;;5.65;1.80;;;;;;;12.84;80.83;98123.22;10318807;28;20060;-68
2023/10/27 09:29:41;;;;;;;4.25;2.15;;;;;;;12.86;80.57;98129.19;10317816;28;20604;-65
2023/10/27 09:34:42;;;;;;;3.22;1.75;;;;;;;12.83;81.16;98118.88;10316136;28;20046;-68
2023/10/27 09:39:45;;;;;;;3.75;1.15;;;;;;;12.87;80.95;98120.03;10318779;28;20043;-70
2023/10/27 09:45:07;;;;;;;4.60;1.30;;;;;;;12.87;81.18;98147.00;10334635;28;20085;-69
2023/10/27 09:50:13;;;;;;;1.77;0.73;;;;;;;12.81;81.30;98159.56;10319502;28;20058;-70
2023/10/27 09:55:18;;;;;;;2.47;0.90;;;;;;;12.86;81.46;98151.56;10317891;28;20054;-70
2023/10/27 10:00:22;;;;;;;2.38;0.80;;;;;;;12.85;81.60;98166.09;10317490;28;20394;-68
2023/10/27 10:05:24;;;;;;;3.95;1.42;;;;;;;12.89;81.46;98161.03;10317412;28;20152;-65
2023/10/27 10:10:35;;;;;;;6.18;1.42;;;;;;;12.90;81.47;98168.91;10318024;28;20390;-64
2023/10/27 10:15:41;;;;;;;4.30;1.10;;;;;;;12.96;81.39;98177.06;10315918;28;20042;-69
2023/10/27 10:20:49;;;;;;;2.05;0.80;;;;;;;12.98;81.83;98185.75;10314299;28;20038;-67
2023/10/27 10:25:56;;;;;;;4.38;0.40;;;;;;;12.96;81.79;98190.56;10313570;28;20402;-65
2023/10/27 10:31:07;;;;;;;0.95;0.50;;;;;;;13.01;81.89;98193.31;10318473;28;20133;-67
2023/10/27 10:36:11;;;;;;;1.90;0.50;;;;;;;13.13;82.37;98196.78;10314796;28;20645;-63
2023/10/27 10:41:15;;;;;;;1.00;0.50;;;;;;;13.46;82.01;98195.13;10315934;28;20074;-67
2023/10/27 10:46:17;;;;;;;1.02;0.40;;;;;;;13.63;82.19;98192.41;10326466;28;20666;-68
2023/10/27 10:51:29;;;;;;;3.33;0.70;;;;;;;13.82;82.14;98191.03;10315374;28;20058;-66
2023/10/27 10:56:30;;;;;;;1.77;0.50;;;;;;;13.94;82.23;98196.31;10275505;28;20467;-67
2023/10/27 11:01:33;;;;;;;0.80;0.50;;;;;;;14.15;82.23;98191.97;10309479;28;20069;-65
2023/10/27 11:06:34;;;;;;;0.82;0.30;;;;;;;14.16;82.12;98201.72;10316614;28;20054;-66
2023/10/27 11:11:36;;;;;;;2.03;0.30;;;;;;;14.15;81.75;98204.66;10314130;28;20054;-66
2023/10/27 11:16:58;;;;;;;2.97;1.10;;;;;;;13.97;81.72;98198.50;10315515;28;20112;-65
2023/10/27 11:22:00;;;;;;;0.80;0.30;;;;;;;14.14;81.54;98197.63;10315081;28;21042;-66
2023/10/27 11:27:01;;;;;;;0.77;0.10;;;;;;;14.14;81.29;98194.91;10328761;28;20035;-66
2023/10/27 11:32:15;;;;;;;0.52;0.10;;;;;;;14.41;80.37;98186.84;10316105;28;20448;-67
2023/10/27 11:37:17;;;;;;;0.60;0.30;;;;;;;14.47;80.14;98189.34;10314898;28;20042;-65
2023/10/27 11:42:19;;;;;;;1.55;0.20;;;;;;;14.61;79.73;98186.25;10314965;28;20046;-64
2023/10/27 11:47:20;;;;;;;0.77;0.35;;;;;;;14.66;79.03;98192.53;10313404;28;20042;-64
2023/10/27 11:52:22;;;;;;;0.20;0.10;;;;;;;14.62;79.06;98187.91;10315308;28;20049;-64
2023/10/27 11:57:23;;;;;;;1.45;0.50;;;;;;;14.67;78.82;98177.13;10312390;28;20104;-64
2023/10/27 12:02:25;;;;;;;2.10;0.43;;;;;;;14.79;78.22;98183.19;10328361;28;20046;-64
2023/10/27 12:07:26;;;;;;;1.38;0.38;;;;;;;14.92;77.94;98184.66;10312025;28;20068;-65
2023/10/27 12:12:28;;;;;;;2.05;0.20;;;;;;;14.98;77.76;98186.31;10328188;28;20482;-65
2023/10/27 12:17:30;;;;;;;0.68;0.13;;;;;;;15.08;77.53;98172.06;10313281;28;20042;-66
2023/10/27 12:22:31;;;;;;;1.08;0.10;;;;;;;15.18;76.46;98176.72;10313047;28;20081;-66
2023/10/27 12:27:33;;;;;;;3.00;0.20;;;;;;;15.31;75.26;98187.13;10312209;28;20066;-65
2023/10/27 12:32:34;;;;;;;2.45;0.25;;;;;;;15.44;73.38;98194.78;10312933;28;20046;-64
2023/10/27 12:37:36;;;;;;;3.47;0.20;;;;;;;15.50;72.19;98201.06;10310086;28;20198;-64
2023/10/27 12:42:38;;;;;;;1.73;0.15;;;;;;;15.79;71.82;98198.78;10311729;28;20125;-64
2023/10/27 12:47:45;;;;;;;1.27;0.20;;;;;;;16.09;70.68;98204.63;10313561;28;20500;-64
2023/10/27 12:52:47;;;;;;;2.47;0.20;;;;;;;16.15;70.39;98211.69;10313826;28;20585;-63
2023/10/27 12:57:49;;;;;;;1.67;0.30;;;;;;;16.33;70.15;98203.09;10309839;28;20053;-63
2023/10/27 13:02:51;;;;;;;2.85;0.20;;;;;;;16.36;69.39;98213.38;10313841;28;20047;-63
2023/10/27 13:07:52;;;;;;;3.30;0.20;;;;;;;16.39;69.14;98201.19;10309780;28;20122;-64
2023/10/27 13:12:57;;;;;;;2.63;0.20;;;;;;;16.37;68.23;98204.19;10310570;28;20042;-64
2023/10/27 13:17:59;;;;;;;2.45;0.20;;;;;;;16.46;68.22;98204.47;10312793;28;20068;-63
2023/10/27 13:23:03;;;;;;;2.90;0.22;;;;;;;16.52;67.86;98206.09;10312488;28;20073;-64
2023/10/27 13:28:04;;;;;;;3.42;0.30;;;;;;;16.57;68.10;98205.31;10310626;28;20137;-64
2023/10/27 13:33:06;;;;;;;5.20;0.20;;;;;;;16.64;67.86;98205.88;10317823;28;20046;-64
2023/10/27 13:38:07;;;;;;;0.80;0.10;;;;;;;16.49;66.77;98203.13;10318246;28;20057;-64
2023/10/27 13:43:09;;;;;;;3.75;0.30;;;;;;;16.61;66.50;98201.00;10318253;28;20050;-63
2023/10/27 13:48:11;;;;;;;5.78;0.30;;;;;;;16.64;66.75;98206.66;10320682;28;20050;-64
2023/10/27 13:53:12;;;;;;;3.67;0.35;;;;;;;16.64;66.63;98214.81;10318899;28;20178;-64
2023/10/27 13:58:15;;;;;;;4.88;0.43;;;;;;;16.58;67.06;98220.50;10319479;28;20046;-65
2023/10/27 14:03:16;;;;;;;0.93;0.20;;;;;;;16.49;67.02;98224.81;10317217;28;20126;-63
2023/10/27 14:08:18;;;;;;;2.30;0.40;;;;;;;16.29;67.15;98230.97;10323867;28;20050;-63
2023/10/27 14:13:21;;;;;;;4.18;0.30;;;;;;;16.14;67.65;98232.56;10319589;28;20058;-63
2023/10/27 14:18:22;;;;;;;1.48;0.30;;;;;;;15.95;68.17;98237.63;10318158;28;20464;-62
2023/10/27 14:23:24;;;;;;;3.95;0.30;;;;;;;15.76;68.01;98244.59;10319087;28;20042;-63
2023/10/27 14:28:28;;;;;;;1.73;0.20;;;;;;;15.64;68.12;98247.44;10316791;28;20054;-64
2023/10/27 14:33:29;;;;;;;3.95;0.45;;;;;;;15.62;68.32;98247.72;10315220;28;20051;-63
2023/10/27 14:38:32;;;;;;;1.95;0.45;;;;;;;15.58;67.86;98241.19;10318220;28;20046;-64
2023/10/27 14:43:33;;;;;;;1.50;0.20;;;;;;;15.60;67.96;98247.16;10317204;28;20125;-63
2023/10/27 14:48:35;;;;;;;3.22;0.20;;;;;;;15.61;67.89;98259.59;10316944;28;20460;-63
2023/10/27 14:53:36;;;;;;;1.65;0.20;;;;;;;15.65;67.96;98255.28;10316711;28;20417;-63
2023/10/27 14:58:39;;;;;;;3.33;0.20;;;;;;;15.88;67.81;98258.72;10330273;28;20460;-63
2023/10/27 15:03:40;;;;;;;1.10;0.20;;;;;;;15.93;67.99;98263.34;10316871;28;20182;-63
2023/10/27 15:08:42;;;;;;;2.38;0.20;;;;;;;16.03;67.96;98269.66;10315146;28;20054;-63
2023/10/27 15:13:43;;;;;;;1.38;0.20;;;;;;;16.18;67.90;98277.03;10331677;28;20061;-64
2023/10/27 15:18:45;;;;;;;2.88;0.20;;;;;;;16.11;68.27;98284.56;10316894;28;20121;-63
2023/10/27 15:23:52;;;;;;;1.08;0.30;;;;;;;16.09;68.12;98288.63;10313998;28;20174;-64
2023/10/27 15:28:54;;;;;;;0.80;0.20;;;;;;;16.06;68.34;98287.28;10315656;28;20555;-63
2023/10/27 15:33:57;;;;;;;3.20;0.30;;;;;;;16.14;67.88;98294.09;10313874;28;20046;-63
2023/10/27 15:38:59;;;;;;;2.10;0.43;;;;;;;16.22;67.87;98293.59;10312680;28;20057;-63
2023/10/27 15:44:02;;;;;;;4.82;0.32;;;;;;;16.25;67.65;98302.03;10315356;28;20046;-63
2023/10/27 15:49:04;;;;;;;1.95;0.50;;;;;;;16.21;67.62;98303.63;10313871;28;20062;-63
2023/10/27 15:54:06;;;;;;;2.53;0.30;;;;;;;16.22;67.40;98307.16;10328280;28;20157;-63
2023/10/27 15:59:07;;;;;;;4.97;0.20;;;;;;;16.12;66.85;98299.78;10312739;28;20048;-63
2023/10/27 16:04:09;;;;;;;3.50;0.20;;;;;;;16.20;66.93;98301.19;10313301;28;20054;-64
2023/10/27 16:09:11;;;;;;;3.22;0.38;;;;;;;16.04;67.00;98309.22;10314991;28;20061;-63
2023/10/27 16:14:33;;;;;;;2.70;0.70;;;;;;;15.92;67.00;98314.03;10314274;28;20046;-64
2023/10/27 16:19:34;;;;;;;3.17;1.00;;;;;;;15.80;67.01;98314.22;10314060;28;20049;-63
2023/10/27 16:24:37;;;;;;;1.33;0.40;;;;;;;15.72;67.19;98328.22;10312727;28;20104;-63
2023/10/27 16:29:38;;;;;;;3.17;0.35;;;;;;;15.51;67.65;98329.13;10313136;28;20353;-63
2023/10/27 16:34:40;;;;;;;2.15;0.50;;;;;;;15.44;67.63;98335.59;10310703;28;20042;-63
2023/10/27 16:39:44;;;;;;;1.50;0.85;;;;;;;15.20;68.08;98334.25;10312902;28;20421;-62
2023/10/27 16:44:46;;;;;;;1.95;0.20;;;;;;;15.05;68.35;98345.75;10313774;28;20042;-63
2023/10/27 16:49:47;;;;;;;2.50;0.30;;;;;;;14.98;68.41;98343.25;10311726;28;20042;-63
2023/10/27 16:54:50;;;;;;;2.85;0.35;;;;;;;14.97;68.07;98352.44;10311695;28;20138;-62
2023/10/27 16:59:52;;;;;;;2.70;0.30;;;;;;;14.85;68.41;98351.78;10313486;28;20040;-62
2023/10/27 17:04:53;;;;;;;2.00;0.20;;;;;;;14.75;68.41;98362.44;10313537;28;20042;-63
2023/10/27 17:10:02;;;;;;;3.30;0.32;;;;;;;14.76;68.60;98364.09;10321276;28;20120;-63
2023/10/27 17:15:05;;;;;;;1.15;0.30;;;;;;;14.68;68.46;98376.19;10319840;28;20046;-62
2023/10/27 17:20:09;;;;;;;2.17;0.30;;;;;;;14.60;68.77;98371.22;10320847;28;20046;-62
2023/10/27 17:25:18;;;;;;;1.27;0.40;;;;;;;14.53;68.98;98386.75;10317734;28;20232;-62
2023/10/27 17:30:20;;;;;;;4.70;0.63;;;;;;;14.40;69.10;98394.16;10321238;28;20093;-63
2023/10/27 17:35:22;;;;;;;1.13;0.35;;;;;;;14.36;69.25;98394.94;10320686;28;20061;-63
2023/10/27 17:40:25;;;;;;;1.00;0.30;;;;;;;14.32;69.25;98404.59;10318528;28;20042;-63
2023/10/27 17:45:26;;;;;;;0.63;0.40;;;;;;;14.31;69.11;98409.16;10318656;28;20401;-63
2023/10/27 17:50:28;;;;;;;1.42;0.30;;;;;;;14.21;69.42;98409.03;10320859;28;20042;-63
2023/10/27 17:55:29;;;;;;;4.07;0.40;;;;;;;14.12;69.68;98424.00;10316667;28;20042;-63
2023/10/27 18:00:30;;;;;;;3.53;0.68;;;;;;;14.05;69.72;98427.69;10318043;28;20520;-62
2023/10/27 18:05:32;;;;;;;0.95;0.40;;;;;;;13.96;70.02;98436.47;10318633;28;20046;-64
2023/10/27 18:10:40;;;;;;;2.13;0.43;;;;;;;13.87;70.29;98430.66;10317599;28;20054;-63
2023/10/27 18:15:46;;;;;;;2.88;1.10;;;;;;;13.88;70.15;98434.97;10316807;28;20501;-63
2023/10/27 18:20:47;;;;;;;2.72;0.50;;;;;;;13.80;70.41;98440.78;10314739;28;20038;-62
2023/10/27 18:25:49;;;;;;;5.47;0.70;;;;;;;13.78;70.33;98448.31;10315847;28;20053;-63
2023/10/27 18:30:51;;;;;;;1.02;0.50;;;;;;;13.78;70.19;98451.81;10316715;28;20402;-63
2023/10/27 18:35:53;;;;;;;2.35;0.68;;;;;;;13.66;70.42;98445.69;10316097;28;20042;-63
2023/10/27 18:40:57;;;;;;;3.35;0.60;;;;;;;13.60;70.44;98446.66;10317296;28;20046;-63
2023/10/27 18:46:00;;;;;;;1.33;0.65;;;;;;;13.58;70.34;98449.59;10316341;28;20046;-63
2023/10/27 18:51:02;;;;;;;2.78;0.68;;;;;;;13.53;70.62;98452.22;10317586;28;20042;-63
2023/10/27 18:56:06;;;;;;;4.30;1.00;;;;;;;13.37;71.02;98450.28;10316961;28;20038;-62
2023/10/27 19:01:08;;;;;;;3.25;0.98;;;;;;;13.31;71.19;98448.53;10315554;28;20199;-63
2023/10/27 19:06:10;;;;;;;4.13;0.63;;;;;;;13.23;71.24;98452.41;10315420;28;20405;-62
2023/10/27 19:11:13;;;;;;;1.98;0.75;;;;;;;13.14;71.29;98454.69;10316114;28;20069;-63
2023/10/27 19:16:16;;;;;;;2.83;0.80;;;;;;;13.03;71.87;98458.22;10313504;28;20050;-62
2023/10/27 19:21:17;;;;;;;5.93;1.83;;;;;;;13.02;71.83;98459.28;10316778;28;20129;-62
2023/10/27 19:26:21;;;;;;;4.05;0.90;;;;;;;12.97;72.19;98462.69;10314763;28;20043;-62
2023/10/27 19:31:25;;;;;;;3.63;0.77;;;;;;;12.94;72.31;98465.06;10313019;28;20144;-62
2023/10/27 19:36:28;;;;;;;2.20;0.98;;;;;;;12.96;72.50;98461.06;10313961;28;20065;-62
2023/10/27 19:41:29;;;;;;;4.07;1.10;;;;;;;12.87;72.45;98468.72;10315526;28;20058;-62
2023/10/27 19:46:31;;;;;;;3.42;0.70;;;;;;;12.88;72.39;98462.25;10313024;28;20061;-63
2023/10/27 19:51:33;;;;;;;7.82;0.98;;;;;;;12.93;72.33;98469.63;10311363;28;20560;-62
2023/10/27 19:56:35;;;;;;;7.25;1.00;;;;;;;12.97;72.08;98469.97;10313108;28;20397;-62
2023/10/27 20:01:36;;;;;;;3.63;0.93;;;;;;;12.97;71.98;98488.84;10315429;28;20053;-62
2023/10/27 20:06:37;;;;;;;4.50;0.80;;;;;;;13.01;71.67;98484.59;10312853;28;20103;-63
2023/10/27 20:11:39;;;;;;;5.25;1.00;;;;;;;12.97;71.58;98489.66;10312574;28;20477;-63
2023/10/27 20:16:40;;;;;;;5.38;0.93;;;;;;;12.87;71.74;98484.91;10314565;28;20050;-63
2023/10/27 20:21:42;;;;;;;4.60;0.93;;;;;;;12.81;72.24;98485.00;10314612;28;20038;-64
2023/10/27 20:26:45;;;;;;;5.93;1.08;;;;;;;12.74;72.72;98495.09;10312412;28;20057;-63
2023/10/27 20:31:48;;;;;;;5.68;0.98;;;;;;;12.70;72.97;98487.47;10313187;28;20050;-63
2023/10/27 20:36:50;;;;;;;2.25;0.65;;;;;;;12.85;73.13;98499.66;10312441;28;20113;-63
2023/10/27 20:41:51;;;;;;;5.22;1.08;;;;;;;12.92;72.93;98499.53;10310741;28;20061;-63
2023/10/27 20:46:54;;;;;;;5.28;1.25;;;;;;;12.98;72.65;98495.88;10313454;28;20050;-64
2023/10/27 20:51:55;;;;;;;4.82;1.10;;;;;;;13.00;72.70;98491.88;10313744;28;20125;-63
2023/10/27 20:56:56;;;;;;;7.07;1.33;;;;;;;12.92;72.60;98497.66;10313437;28;20494;-64
2023/10/27 21:01:58;;;;;;;4.53;1.15;;;;;;;12.83;72.91;98496.38;10311729;28;20058;-64
2023/10/27 21:06:59;;;;;;;6.20;1.38;;;;;;;12.73;73.03;98502.34;10310157;28;20740;-64
2023/10/27 21:12:01;;;;;;;5.45;1.77;;;;;;;12.72;73.26;98495.34;10305317;28;20054;-64
2023/10/27 21:17:03;;;;;;;5.90;1.45;;;;;;;12.67;73.26;98506.00;10310350;28;20046;-63
2023/10/27 21:22:06;;;;;;;5.47;1.40;;;;;;;12.67;73.21;98508.69;10312296;28;20046;-64
2023/10/27 21:27:08;;;;;;;6.20;1.25;;;;;;;12.58;73.33;98494.75;10312767;28;20046;-64
2023/10/27 21:32:09;;;;;;;5.20;1.45;;;;;;;12.62;73.24;98503.19;10312236;28;20058;-64
2023/10/27 21:37:11;;;;;;;2.58;1.00;;;;;;;12.61;73.36;98505.06;10310476;28;20054;-63
2023/10/27 21:42:13;;;;;;;6.82;1.20;;;;;;;12.53;73.74;98510.81;10309627;28;20232;-64
2023/10/27 21:47:14;;;;;;;2.60;1.30;;;;;;;12.48;73.91;98508.81;10311015;28;20065;-64
2023/10/27 21:52:16;;;;;;;4.10;1.50;;;;;;;12.52;74.13;98527.19;10313727;28;20125;-65
2023/10/27 21:57:17;;;;;;;7.97;1.25;;;;;;;12.46;74.58;98521.72;10318273;28;20058;-64
2023/10/27 22:02:19;;;;;;;9.82;1.88;;;;;;;12.57;74.35;98522.75;10318358;28;20480;-63
2023/10/27 22:07:21;;;;;;;4.60;1.13;;;;;;;12.62;74.61;98528.28;10319956;28;20438;-63
2023/10/27 22:12:25;;;;;;;4.03;0.82;;;;;;;12.73;74.78;98529.31;10316466;28;20053;-64
2023/10/27 22:17:26;;;;;;;3.47;0.70;;;;;;;12.84;74.74;98541.97;10316598;28;20046;-63
2023/10/27 22:22:29;;;;;;;7.03;1.30;;;;;;;12.96;74.80;98535.75;10318348;28;20133;-64
2023/10/27 22:27:30;;;;;;;4.93;1.33;;;;;;;13.02;74.72;98537.50;10316929;28;20046;-64
2023/10/27 22:32:32;;;;;;;7.18;1.45;;;;;;;12.99;74.97;98536.09;10316882;28;20995;-64
2023/10/27 22:37:34;;;;;;;7.45;1.20;;;;;;;12.99;75.17;98529.88;10317995;28;20133;-65
2023/10/27 22:42:35;;;;;;;4.80;1.33;;;;;;;12.96;75.41;98539.28;10317919;28;20498;-66
2023/10/27 22:47:37;;;;;;;8.80;1.35;;;;;;;12.98;75.30;98539.03;10316183;28;20062;-67
2023/10/27 22:52:38;;;;;;;7.65;1.55;;;;;;;12.97;75.24;98537.38;10316736;28;20042;-67
2023/10/27 22:57:40;;;;;;;4.53;1.50;;;;;;;12.86;75.87;98541.75;10318257;28;20054;-67
2023/10/27 23:02:42;;;;;;;7.70;1.52;;;;;;;12.87;75.74;98543.38;10314375;28;20050;-68
2023/10/27 23:07:44;;;;;;;5.70;1.33;;;;;;;12.80;76.14;98543.50;10315773;28;20477;-68
2023/10/27 23:12:47;;;;;;;3.78;1.13;;;;;;;12.80;76.30;98538.13;10315780;28;20069;-66
2023/10/27 23:17:48;;;;;;;4.53;1.17;;;;;;;12.86;76.23;98547.16;10314863;28;20050;-68